createdAt,value
2019-02-20T00:00:03.474Z,15.92
2019-02-20T00:01:03.114Z,15.84
2019-02-20T00:02:03.305Z,16.28
2019-02-20T00:03:03.229Z,15.13
2019-02-20T00:04:03.784Z,16.59
2019-02-20T00:05:03.606Z,14.18
2019-02-20T00:06:03.615Z,13.42
2019-02-20T00:07:03.441Z,13.85
2019-02-20T00:08:02.893Z,13.12
2019-02-20T00:09:03.612Z,14.4
2019-02-20T00:10:03.202Z,13.24
2019-02-20T00:11:03.286Z,12.81
2019-02-20T00:12:02.889Z,15.4
2019-02-20T00:13:03.267Z,15.15
2019-02-20T00:14:03.006Z,12.45
2019-02-20T00:15:03.653Z,12.45
2019-02-20T00:16:02.818Z,13.79
2019-02-20T00:17:03.109Z,13.37
2019-02-20T00:18:02.656Z,13.37
2019-02-20T00:19:02.939Z,13.05
2019-02-20T00:20:03.206Z,13.79
2019-02-20T00:21:02.699Z,13.79
2019-02-20T00:22:03.119Z,13.98
2019-02-20T00:23:02.861Z,13.35
2019-02-20T00:24:03.246Z,13.82
2019-02-20T00:25:03.018Z,12.98
2019-02-20T00:26:02.807Z,13.96
2019-02-20T00:27:03.039Z,13.43
2019-02-20T00:28:03.602Z,13.42
2019-02-20T00:29:02.828Z,15.62
2019-02-20T00:30:03.094Z,14.69
2019-02-20T00:31:02.837Z,14.89
2019-02-20T00:32:02.968Z,13.31
2019-02-20T00:33:02.576Z,11.96
2019-02-20T00:34:03.153Z,12.89
2019-02-20T00:35:02.903Z,14.75
2019-02-20T00:36:03.098Z,12.25
2019-02-20T00:37:02.762Z,10.87
2019-02-20T00:38:03.190Z,11.05
2019-02-20T00:39:02.787Z,12.05
2019-02-20T00:40:03.115Z,12.03
2019-02-20T00:41:02.785Z,10.49
2019-02-20T00:42:03.402Z,10.41
2019-02-20T00:43:02.780Z,11.55
2019-02-20T00:44:02.991Z,11.95
2019-02-20T00:45:02.747Z,10.99
2019-02-20T00:46:02.672Z,11.41
2019-02-20T00:47:03.736Z,13.19
2019-02-20T00:48:03.286Z,12.48
2019-02-20T00:49:02.989Z,12.88
2019-02-20T00:50:03.769Z,11.66
2019-02-20T00:51:03.445Z,11.06
2019-02-20T00:52:03.593Z,12.58
2019-02-20T00:53:03.265Z,12.85
2019-02-20T00:54:03.382Z,11.87
2019-02-20T00:55:03.155Z,12.65
2019-02-20T00:56:03.493Z,13.12
2019-02-20T00:57:02.782Z,11.71
2019-02-20T00:58:03.464Z,11.44
2019-02-20T00:59:03.494Z,12.02
2019-02-20T01:00:03.411Z,11.39
2019-02-20T01:01:02.946Z,11.08
2019-02-20T01:02:02.586Z,11.71
2019-02-20T01:03:03.565Z,12.12
2019-02-20T01:04:02.880Z,13.1
2019-02-20T01:05:03.530Z,11.46
2019-02-20T01:06:05.166Z,11.07
2019-02-20T01:07:02.985Z,11.07
2019-02-20T01:08:03.312Z,11.89
2019-02-20T01:09:03.331Z,10.71
2019-02-20T01:10:03.387Z,10.71
2019-02-20T01:11:03.047Z,12.77
2019-02-20T01:12:03.373Z,12.39
2019-02-20T01:13:02.893Z,12.39
2019-02-20T01:14:03.744Z,11.93
2019-02-20T01:15:03.870Z,11.46
2019-02-20T01:16:03.303Z,11.87
2019-02-20T01:17:03.641Z,11.19
2019-02-20T01:18:03.226Z,12.16
2019-02-20T01:19:03.755Z,13.24
2019-02-20T01:20:03.256Z,12.57
2019-02-20T01:21:02.862Z,11.15
2019-02-20T01:22:03.169Z,12.15
2019-02-20T01:23:03.572Z,11.95
2019-02-20T01:24:03.151Z,12.25
2019-02-20T01:25:03.827Z,11.8
2019-02-20T01:26:02.927Z,12.7
2019-02-20T01:27:03.486Z,10.95
2019-02-20T01:28:02.686Z,12.35
2019-02-20T01:29:03.153Z,11.75
2019-02-20T01:30:03.689Z,12.56
2019-02-20T01:31:03.336Z,12.75
2019-02-20T01:32:02.749Z,13.27
2019-02-20T01:33:03.064Z,12.22
2019-02-20T01:34:03.616Z,13.02
2019-02-20T01:35:02.924Z,12.39
2019-02-20T01:36:03.280Z,13.01
2019-02-20T01:37:03.034Z,13.22
2019-02-20T01:38:02.840Z,14.51
2019-02-20T01:39:02.784Z,14.06
2019-02-20T01:40:04.013Z,13.16
2019-02-20T01:41:02.652Z,14.06
2019-02-20T01:42:02.707Z,13.56
2019-02-20T01:43:03.274Z,13.54
2019-02-20T01:44:03.516Z,13.18
2019-02-20T01:45:03.032Z,14.13
2019-02-20T01:46:03.703Z,12.94
2019-02-20T01:47:03.353Z,13.58
2019-02-20T01:48:03.067Z,12.99
2019-02-20T01:49:03.286Z,12.19
2019-02-20T01:50:02.999Z,13.71
2019-02-20T01:51:03.309Z,13.09
2019-02-20T01:52:03.010Z,13.26
2019-02-20T01:53:10.732Z,15.28
2019-02-20T01:54:02.722Z,13.32
2019-02-20T01:55:03.215Z,13.32
2019-02-20T01:56:02.872Z,12.86
2019-02-20T01:57:03.475Z,13.41
2019-02-20T01:58:02.919Z,13.41
2019-02-20T01:59:02.977Z,12.36
2019-02-20T02:00:03.140Z,12.91
2019-02-20T02:01:03.483Z,12.91
2019-02-20T02:02:03.001Z,13.15
2019-02-20T02:03:04.227Z,13.03
2019-02-20T02:04:03.142Z,13.08
2019-02-20T02:05:03.699Z,12.77
2019-02-20T02:06:03.671Z,13.86
2019-02-20T02:07:02.861Z,13.85
2019-02-20T02:08:03.749Z,12.15
2019-02-20T02:09:03.292Z,13.73
2019-02-20T02:10:03.955Z,13.12
2019-02-20T02:11:03.573Z,13.18
2019-02-20T02:12:03.007Z,13.18
2019-02-20T02:13:03.639Z,13.29
2019-02-20T02:14:03.002Z,12.79
2019-02-20T02:15:03.392Z,12.66
2019-02-20T02:16:02.932Z,13.7
2019-02-20T02:17:03.052Z,14.69
2019-02-20T02:18:03.458Z,12.29
2019-02-20T02:19:03.066Z,13.52
2019-02-20T02:20:03.460Z,13.84
2019-02-20T02:21:02.835Z,14.24
2019-02-20T02:22:03.168Z,14.12
2019-02-20T02:23:03.073Z,13.92
2019-02-20T02:24:03.500Z,13.04
2019-02-20T02:25:02.884Z,14.11
2019-02-20T02:26:11.200Z,13.88
2019-02-20T02:27:03.729Z,14.19
2019-02-20T02:28:03.088Z,14.61
2019-02-20T02:29:03.410Z,14.27
2019-02-20T02:30:03.118Z,14.39
2019-02-20T02:31:03.469Z,13.05
2019-02-20T02:32:03.177Z,15.75
2019-02-20T02:33:03.095Z,13.65
2019-02-20T02:34:02.848Z,13.38
2019-02-20T02:35:03.126Z,13.32
2019-02-20T02:36:02.838Z,13.22
2019-02-20T02:37:03.275Z,15.49
2019-02-20T02:38:03.180Z,14.52
2019-02-20T02:39:03.335Z,14.81
2019-02-20T02:40:03.196Z,14.67
2019-02-20T02:41:03.576Z,14.54
2019-02-20T02:42:03.322Z,16.44
2019-02-20T02:43:03.479Z,15.01
2019-02-20T02:44:03.105Z,15.02
2019-02-20T02:45:03.160Z,14.22
2019-02-20T02:46:02.815Z,15.01
2019-02-20T02:47:03.109Z,15.01
2019-02-20T02:48:03.566Z,14.84
2019-02-20T02:49:02.933Z,15.57
2019-02-20T02:50:02.827Z,15.57
2019-02-20T02:51:02.754Z,15.5
2019-02-20T02:52:03.533Z,14.87
2019-02-20T02:53:03.279Z,16.12
2019-02-20T02:54:03.045Z,16.86
2019-02-20T02:55:03.508Z,16.52
2019-02-20T02:56:03.238Z,15.96
2019-02-20T02:57:03.030Z,14.58
2019-02-20T02:58:03.287Z,15.95
2019-02-20T02:59:02.774Z,14.63
2019-02-20T03:00:03.402Z,15.08
2019-02-20T03:01:02.873Z,15.22
2019-02-20T03:02:02.481Z,14.52
2019-02-20T03:03:03.397Z,14.85
2019-02-20T03:04:03.576Z,15.98
2019-02-20T03:05:03.314Z,15.56
2019-02-20T03:06:02.827Z,15.33
2019-02-20T03:07:03.534Z,15.66
2019-02-20T03:08:02.973Z,16.56
2019-02-20T03:09:03.728Z,15.36
2019-02-20T03:10:03.031Z,15.27
2019-02-20T03:11:03.300Z,14.08
2019-02-20T03:12:02.718Z,16.58
2019-02-20T03:13:07.041Z,15.54
2019-02-20T03:14:03.083Z,15.5
2019-02-20T03:15:02.923Z,14.34
2019-02-20T03:16:03.395Z,14.58
2019-02-20T03:17:03.554Z,14.88
2019-02-20T03:18:02.959Z,15.65
2019-02-20T03:19:03.255Z,14.96
2019-02-20T03:20:03.010Z,15.43
2019-02-20T03:21:03.067Z,15.63
2019-02-20T03:22:02.898Z,16.96
2019-02-20T03:23:03.303Z,16.82
2019-02-20T03:24:02.598Z,15.7
2019-02-20T03:25:03.532Z,16.72
2019-02-20T03:26:03.159Z,16.04
2019-02-20T03:27:03.845Z,13.98
2019-02-20T03:28:03.343Z,16.27
2019-02-20T03:29:03.563Z,14.53
2019-02-20T03:30:03.096Z,15.68
2019-02-20T03:31:03.749Z,15.71
2019-02-20T03:32:03.107Z,15.38
2019-02-20T03:33:03.577Z,15.16
2019-02-20T03:34:03.537Z,18.78
2019-02-20T03:35:03.566Z,18.78
2019-02-20T03:36:03.149Z,14.54
2019-02-20T03:37:03.297Z,15.18
2019-02-20T03:38:02.845Z,15.18
2019-02-20T03:39:03.399Z,13.86
2019-02-20T03:40:02.858Z,14.91
2019-02-20T03:41:03.427Z,14.76
2019-02-20T03:42:02.835Z,15.66
2019-02-20T03:43:03.503Z,16.16
2019-02-20T03:44:02.935Z,16.37
2019-02-20T03:45:03.577Z,16.58
2019-02-20T03:46:03.393Z,16.56
2019-02-20T03:47:02.904Z,15.78
2019-02-20T03:48:03.316Z,16.1
2019-02-20T03:49:03.675Z,14.21
2019-02-20T03:50:03.677Z,14.81
2019-02-20T03:51:03.326Z,14.94
2019-02-20T03:52:02.908Z,16.65
2019-02-20T03:53:03.585Z,16.28
2019-02-20T03:54:02.702Z,15.01
2019-02-20T03:55:03.335Z,16.08
2019-02-20T03:56:02.691Z,15.94
2019-02-20T03:57:03.361Z,16.9
2019-02-20T03:58:03.713Z,17.53
2019-02-20T03:59:03.573Z,18.18
2019-02-20T04:00:02.974Z,15.48
2019-02-20T04:01:03.506Z,16.41
2019-02-20T04:02:03.252Z,16.23
2019-02-20T04:03:02.822Z,18.07
2019-02-20T04:04:03.441Z,15.23
2019-02-20T04:05:03.710Z,15.55
2019-02-20T04:06:03.456Z,16.64
2019-02-20T04:07:02.917Z,17.13
2019-02-20T04:08:03.362Z,16.34
2019-02-20T04:09:03.530Z,17.16
2019-02-20T04:10:03.546Z,15.51
2019-02-20T04:11:02.940Z,16.28
2019-02-20T04:12:02.656Z,14.47
2019-02-20T04:13:02.972Z,17.04
2019-02-20T04:14:02.831Z,14.25
2019-02-20T04:15:03.164Z,14.94
2019-02-20T04:16:03.629Z,14.41
2019-02-20T04:17:03.228Z,15.2
2019-02-20T04:18:02.984Z,12.79
2019-02-20T04:19:03.314Z,14.71
2019-02-20T04:20:02.880Z,15.92
2019-02-20T04:21:03.085Z,14.1
2019-02-20T04:22:02.820Z,15.23
2019-02-20T04:23:03.557Z,15.83
2019-02-20T04:24:03.208Z,14.42
2019-02-20T04:25:03.270Z,14.42
2019-02-20T04:26:03.465Z,15.22
2019-02-20T04:27:02.844Z,15.22
2019-02-20T04:28:03.425Z,15.48
2019-02-20T04:29:02.898Z,14.41
2019-02-20T04:30:03.555Z,14.41
2019-02-20T04:31:03.355Z,13.22
2019-02-20T04:32:03.362Z,14.63
2019-02-20T04:33:02.794Z,14.63
2019-02-20T04:34:02.968Z,14.86
2019-02-20T04:35:02.828Z,14.84
2019-02-20T04:36:02.897Z,14.77
2019-02-20T04:37:02.743Z,15.43
2019-02-20T04:38:03.211Z,15.87
2019-02-20T04:39:03.676Z,18.14
2019-02-20T04:40:03.092Z,20.71
2019-02-20T04:41:03.533Z,19.41
2019-02-20T04:42:03.323Z,20.08
2019-02-20T04:43:02.953Z,21.35
2019-02-20T04:44:03.336Z,19.55
2019-02-20T04:45:03.060Z,18.39
2019-02-20T04:46:03.298Z,17.94
2019-02-20T04:47:02.924Z,16.64
2019-02-20T04:48:03.573Z,17.21
2019-02-20T04:49:03.241Z,16.86
2019-02-20T04:50:03.571Z,18.51
2019-02-20T04:51:02.935Z,17.25
2019-02-20T04:52:03.217Z,16.9
2019-02-20T04:53:03.840Z,15.93
2019-02-20T04:54:13.797Z,14.84
2019-02-20T04:55:02.940Z,15.89
2019-02-20T04:56:03.579Z,16.92
2019-02-20T04:57:02.930Z,16.26
2019-02-20T04:58:03.498Z,16.89
2019-02-20T04:59:02.900Z,16.93
2019-02-20T05:00:03.799Z,15.59
2019-02-20T05:01:02.854Z,17.04
2019-02-20T05:02:03.557Z,15.41
2019-02-20T05:03:02.889Z,15.41
2019-02-20T05:04:03.696Z,16.62
2019-02-20T05:05:02.958Z,15.42
2019-02-20T05:06:03.329Z,15.47
2019-02-20T05:07:03.289Z,15.68
2019-02-20T05:08:03.062Z,16.11
2019-02-20T05:09:03.220Z,15.68
2019-02-20T05:10:03.011Z,14.85
2019-02-20T05:11:03.222Z,14.68
2019-02-20T05:12:02.638Z,16.56
2019-02-20T05:13:03.504Z,15.71
2019-02-20T05:14:03.748Z,15.75
2019-02-20T05:15:03.000Z,15.75
2019-02-20T05:16:03.074Z,15.16
2019-02-20T05:17:03.727Z,15.22
2019-02-20T05:18:03.588Z,15.22
2019-02-20T05:19:03.840Z,17.01
2019-02-20T05:20:02.826Z,17.01
2019-02-20T05:21:03.409Z,18.24
2019-02-20T05:22:03.179Z,17.45
2019-02-20T05:23:03.080Z,16.54
2019-02-20T05:24:03.170Z,16.24
2019-02-20T05:25:03.831Z,16.34
2019-02-20T05:26:02.941Z,17.68
2019-02-20T05:27:03.544Z,17.05
2019-02-20T05:28:02.734Z,17.39
2019-02-20T05:29:03.369Z,17.21
2019-02-20T05:30:03.890Z,15.89
2019-02-20T05:31:03.289Z,16.15
2019-02-20T05:32:03.187Z,16.15
2019-02-20T05:33:03.247Z,15.01
2019-02-20T05:34:02.851Z,16.12
2019-02-20T05:35:03.581Z,14.66
2019-02-20T05:36:03.127Z,17.28
2019-02-20T05:37:03.694Z,17.22
2019-02-20T05:38:03.084Z,18.54
2019-02-20T05:39:03.563Z,18.58
2019-02-20T05:40:03.502Z,17.58
2019-02-20T05:41:02.996Z,17.75
2019-02-20T05:42:03.200Z,15.29
2019-02-20T05:43:03.183Z,17.43
2019-02-20T05:44:03.424Z,17.52
2019-02-20T05:45:03.341Z,16.88
2019-02-20T05:46:03.066Z,16.46
2019-02-20T05:47:03.402Z,16.68
2019-02-20T05:48:02.894Z,16.82
2019-02-20T05:49:03.669Z,16.31
2019-02-20T05:50:03.228Z,16.71
2019-02-20T05:51:03.579Z,15.42
2019-02-20T05:52:02.758Z,15.37
2019-02-20T05:53:03.219Z,15.74
2019-02-20T05:54:02.809Z,15.98
2019-02-20T05:55:03.277Z,14.78
2019-02-20T05:56:03.377Z,14.73
2019-02-20T05:57:03.684Z,15.05
2019-02-20T05:58:03.228Z,17.29
2019-02-20T05:59:03.426Z,16.61
2019-02-20T06:00:02.957Z,16.61
2019-02-20T06:01:03.339Z,17.64
2019-02-20T06:02:02.959Z,15.56
2019-02-20T06:03:05.213Z,15.56
2019-02-20T06:04:03.618Z,16.76
2019-02-20T06:05:03.426Z,16.76
2019-02-20T06:06:02.736Z,18.61
2019-02-20T06:07:03.357Z,17.36
2019-02-20T06:08:03.728Z,17.19
2019-02-20T06:09:03.626Z,17.77
2019-02-20T06:10:02.747Z,16.29
2019-02-20T06:11:15.015Z,16.79
2019-02-20T06:12:03.761Z,17.57
2019-02-20T06:13:03.217Z,17.36
2019-02-20T06:14:03.519Z,16.58
2019-02-20T06:15:03.386Z,16.42
2019-02-20T06:16:03.149Z,18
2019-02-20T06:17:03.292Z,15.41
2019-02-20T06:18:04.169Z,16.53
2019-02-20T06:19:03.441Z,17.7
2019-02-20T06:20:02.644Z,17.16
2019-02-20T06:21:02.794Z,17.5
2019-02-20T06:22:02.871Z,16.07
2019-02-20T06:23:13.572Z,17.99
2019-02-20T06:24:03.018Z,16.94
2019-02-20T06:25:03.710Z,17.26
2019-02-20T06:26:03.044Z,17.39
2019-02-20T06:27:03.188Z,16.83
2019-02-20T06:28:02.711Z,16.55
2019-02-20T06:29:03.141Z,18.58
2019-02-20T06:30:03.283Z,18.1
2019-02-20T06:31:03.568Z,16.46
2019-02-20T06:32:03.435Z,17.86
2019-02-20T06:33:03.172Z,17.47
2019-02-20T06:34:03.241Z,18.92
2019-02-20T06:35:02.716Z,18.38
2019-02-20T06:36:02.830Z,17.08
2019-02-20T06:37:03.181Z,16.93
2019-02-20T06:38:02.646Z,16.79
2019-02-20T06:39:03.036Z,16.82
2019-02-20T06:40:03.685Z,16.79
2019-02-20T06:41:03.105Z,17.03
2019-02-20T06:42:03.677Z,17.02
2019-02-20T06:43:03.112Z,17.99
2019-02-20T06:44:03.386Z,18.27
2019-02-20T06:45:03.177Z,18.39
2019-02-20T06:46:03.436Z,15.99
2019-02-20T06:47:02.988Z,18.55
2019-02-20T06:48:02.813Z,18.55
2019-02-20T06:49:03.030Z,16.27
2019-02-20T06:50:03.676Z,16.27
2019-02-20T06:51:03.370Z,16.07
2019-02-20T06:52:03.406Z,17.16
2019-02-20T06:53:02.971Z,17.16
2019-02-20T06:54:03.467Z,17.04
2019-02-20T06:55:03.093Z,17.04
2019-02-20T06:56:03.560Z,16.78
2019-02-20T06:57:02.842Z,16.22
2019-02-20T06:58:03.451Z,17.41
2019-02-20T06:59:02.928Z,17.09
2019-02-20T07:00:03.325Z,17.3
2019-02-20T07:01:03.299Z,16.79
2019-02-20T07:02:03.730Z,15.69
2019-02-20T07:03:02.918Z,15.73
2019-02-20T07:04:03.203Z,18.6
2019-02-20T07:05:03.403Z,16.05
2019-02-20T07:06:03.373Z,15.74
2019-02-20T07:07:03.057Z,17.48
2019-02-20T07:08:03.642Z,16.78
2019-02-20T07:09:03.252Z,17.04
2019-02-20T07:10:03.388Z,17.07
2019-02-20T07:11:03.610Z,16.24
2019-02-20T07:12:03.465Z,17.69
2019-02-20T07:13:03.485Z,18.24
2019-02-20T07:14:03.145Z,18.31
2019-02-20T07:15:03.763Z,18.91
2019-02-20T07:16:03.262Z,18.28
2019-02-20T07:17:03.617Z,16.41
2019-02-20T07:18:02.846Z,17.32
2019-02-20T07:19:03.411Z,18.99
2019-02-20T07:20:02.958Z,18.11
2019-02-20T07:21:03.052Z,18.06
2019-02-20T07:22:02.889Z,17.75
2019-02-20T07:23:03.544Z,18.95
2019-02-20T07:24:03.544Z,19.31
2019-02-20T07:25:03.911Z,17.19
2019-02-20T07:26:03.654Z,18.28
2019-02-20T07:27:03.259Z,17.58
2019-02-20T07:28:03.454Z,17.73
2019-02-20T07:29:03.211Z,18.75
2019-02-20T07:30:02.779Z,18.02
2019-02-20T07:31:03.232Z,18.07
2019-02-20T07:32:03.823Z,18.55
2019-02-20T07:33:03.265Z,20.05
2019-02-20T07:34:05.566Z,18.28
2019-02-20T07:35:02.996Z,19.92
2019-02-20T07:36:02.958Z,18.72
2019-02-20T07:37:03.482Z,20.98
2019-02-20T07:38:02.897Z,20.44
2019-02-20T07:39:03.577Z,21.86
2019-02-20T07:40:03.074Z,20.39
2019-02-20T07:41:03.565Z,20.39
2019-02-20T07:42:02.858Z,19.74
2019-02-20T07:43:03.391Z,19.98
2019-02-20T07:44:02.661Z,19.98
2019-02-20T07:45:03.369Z,21.43
2019-02-20T07:46:02.747Z,21.08
2019-02-20T07:47:03.513Z,20.51
2019-02-20T07:48:02.986Z,19.43
2019-02-20T07:49:03.479Z,18.3
2019-02-20T07:50:03.844Z,19.24
2019-02-20T07:51:03.502Z,18.51
2019-02-20T07:52:03.033Z,20.21
2019-02-20T07:53:03.403Z,19.88
2019-02-20T07:54:02.903Z,20.37
2019-02-20T07:55:13.738Z,19.76
2019-02-20T07:56:03.659Z,19.1
2019-02-20T07:57:03.233Z,20.36
2019-02-20T07:58:02.931Z,20
2019-02-20T07:59:03.583Z,19.94
2019-02-20T08:00:03.262Z,18.65
2019-02-20T08:01:03.749Z,20.06
2019-02-20T08:02:02.907Z,18.66
2019-02-20T08:03:03.165Z,18.38
2019-02-20T08:04:02.969Z,17.34
2019-02-20T08:05:03.803Z,20.1
2019-02-20T08:06:03.192Z,19.11
2019-02-20T08:07:03.622Z,17.34
2019-02-20T08:08:02.837Z,18.68
2019-02-20T08:09:03.596Z,18.25
2019-02-20T08:10:03.027Z,18.51
2019-02-20T08:11:03.193Z,17.68
2019-02-20T08:12:03.310Z,20.61
2019-02-20T08:13:03.122Z,19.84
2019-02-20T08:14:03.553Z,20.54
2019-02-20T08:15:03.062Z,19.16
2019-02-20T08:16:03.543Z,18.89
2019-02-20T08:17:02.999Z,20.7
2019-02-20T08:18:03.736Z,19.06
2019-02-20T08:19:03.118Z,19.89
2019-02-20T08:20:03.408Z,19.15
2019-02-20T08:21:03.058Z,18.12
2019-02-20T08:22:02.878Z,18.45
2019-02-20T08:23:03.059Z,18.95
2019-02-20T08:24:03.307Z,18.35
2019-02-20T08:25:03.097Z,18.93
2019-02-20T08:26:03.277Z,19.86
2019-02-20T08:27:02.735Z,21.05
2019-02-20T08:28:02.980Z,19.82
2019-02-20T08:29:03.517Z,21.91
2019-02-20T08:30:03.077Z,20.71
2019-02-20T08:31:03.634Z,19.92
2019-02-20T08:32:02.881Z,19.92
2019-02-20T08:33:03.357Z,21.87
2019-02-20T08:34:03.370Z,20.3
2019-02-20T08:35:03.372Z,20.3
2019-02-20T08:36:02.866Z,21.63
2019-02-20T08:37:03.400Z,21.99
2019-02-20T08:38:03.799Z,19.2
2019-02-20T08:39:03.047Z,21.45
2019-02-20T08:40:03.679Z,20.39
2019-02-20T08:41:03.261Z,20.94
2019-02-20T08:42:03.474Z,22.65
2019-02-20T08:43:03.191Z,22.14
2019-02-20T08:44:03.213Z,21.68
2019-02-20T08:45:02.686Z,20.06
2019-02-20T08:46:03.089Z,21.09
2019-02-20T08:47:02.951Z,21.86
2019-02-20T08:48:03.205Z,22.18
2019-02-20T08:49:03.050Z,20.82
2019-02-20T08:50:03.211Z,20.38
2019-02-20T08:51:02.671Z,21.14
2019-02-20T08:52:03.282Z,22.18
2019-02-20T08:53:03.264Z,20.42
2019-02-20T08:54:04.731Z,22.26
2019-02-20T08:55:03.590Z,20.41
2019-02-20T08:56:02.969Z,19.99
2019-02-20T08:57:03.223Z,21.16
2019-02-20T08:58:02.789Z,21.02
2019-02-20T08:59:03.199Z,19.74
2019-02-20T09:00:03.698Z,20.25
2019-02-20T09:01:03.150Z,21.62
2019-02-20T09:02:03.689Z,21.72
2019-02-20T09:03:03.081Z,20.65
2019-02-20T09:04:02.914Z,20.4
2019-02-20T09:05:03.147Z,20.64
2019-02-20T09:06:03.714Z,19.46
2019-02-20T09:07:03.000Z,20.25
2019-02-20T09:08:03.357Z,20.42
2019-02-20T09:09:03.198Z,20.11
2019-02-20T09:10:03.648Z,21.37
2019-02-20T09:11:03.049Z,20.67
2019-02-20T09:12:03.381Z,21.73
2019-02-20T09:13:02.776Z,21.02
2019-02-20T09:14:03.317Z,19.86
2019-02-20T09:15:03.121Z,20.74
2019-02-20T09:16:03.270Z,20.84
2019-02-20T09:17:02.733Z,19.95
2019-02-20T09:18:03.458Z,20.39
2019-02-20T09:19:03.787Z,21.41
2019-02-20T09:20:02.980Z,21.41
2019-02-20T09:21:03.580Z,20.96
2019-02-20T09:22:02.785Z,20.96
2019-02-20T09:23:03.556Z,20.36
2019-02-20T09:24:02.914Z,19.34
2019-02-20T09:25:03.549Z,21.24
2019-02-20T09:26:02.880Z,21.72
2019-02-20T09:27:03.435Z,20.71
2019-02-20T09:28:02.735Z,21.35
2019-02-20T09:29:03.154Z,21.68
2019-02-20T09:30:02.808Z,21.66
2019-02-20T09:31:03.242Z,22.79
2019-02-20T09:32:02.503Z,22.77
2019-02-20T09:33:03.240Z,23.55
2019-02-20T09:34:03.711Z,22.82
2019-02-20T09:35:03.155Z,23.05
2019-02-20T09:36:03.548Z,24.35
2019-02-20T09:37:02.953Z,23.29
2019-02-20T09:38:02.651Z,22.68
2019-02-20T09:39:03.218Z,25.89
2019-02-20T09:40:03.819Z,24.04
2019-02-20T09:41:02.894Z,23.98
2019-02-20T09:42:03.554Z,24.29
2019-02-20T09:43:02.934Z,23.55
2019-02-20T09:44:03.484Z,23.52
2019-02-20T09:45:02.928Z,22.19
2019-02-20T09:46:03.788Z,22.94
2019-02-20T09:47:02.766Z,21.45
2019-02-20T09:48:03.426Z,21.07
2019-02-20T09:49:02.616Z,20.04
2019-02-20T09:50:03.206Z,17.24
2019-02-20T09:51:03.646Z,18.24
2019-02-20T09:52:03.225Z,17.85
2019-02-20T09:53:03.259Z,17.22
2019-02-20T09:54:02.873Z,16.93
2019-02-20T09:55:03.120Z,18.47
2019-02-20T09:56:02.762Z,18.19
2019-02-20T09:57:02.934Z,19.15
2019-02-20T09:58:03.798Z,19.52
2019-02-20T09:59:02.817Z,21.36
2019-02-20T10:00:03.008Z,21.01
2019-02-20T10:01:04.092Z,20.96
2019-02-20T10:02:03.111Z,19.46
2019-02-20T10:03:03.638Z,18.37
2019-02-20T10:04:03.054Z,19.11
2019-02-20T10:05:03.529Z,18.14
2019-02-20T10:06:02.982Z,18.1
2019-02-20T10:07:03.315Z,16.99
2019-02-20T10:08:04.654Z,18.24
2019-02-20T10:09:03.085Z,19.76
2019-02-20T10:10:03.814Z,17.55
2019-02-20T10:11:02.916Z,18.98
2019-02-20T10:12:03.471Z,19.14
2019-02-20T10:13:03.071Z,19.14
2019-02-20T10:14:03.345Z,18.76
2019-02-20T10:15:03.063Z,18.07
2019-02-20T10:16:03.533Z,18.07
2019-02-20T10:17:03.350Z,19.4
2019-02-20T10:18:03.625Z,19.02
2019-02-20T10:19:02.900Z,20.14
2019-02-20T10:20:03.417Z,17.72
2019-02-20T10:21:02.788Z,18.04
2019-02-20T10:22:03.213Z,19.45
2019-02-20T10:23:02.727Z,19.05
2019-02-20T10:24:03.464Z,19.56
2019-02-20T10:25:02.813Z,19.7
2019-02-20T10:26:03.316Z,18.79
2019-02-20T10:27:03.314Z,17.31
2019-02-20T10:28:02.706Z,18.18
2019-02-20T10:29:03.322Z,18.16
2019-02-20T10:30:03.640Z,18.96
2019-02-20T10:31:03.178Z,19.11
2019-02-20T10:32:03.569Z,19.24
2019-02-20T10:33:03.042Z,19.74
2019-02-20T10:34:03.432Z,19.59
2019-02-20T10:35:02.890Z,17.87
2019-02-20T10:36:03.702Z,18.21
2019-02-20T10:37:03.481Z,17.84
2019-02-20T10:38:02.891Z,16.92
2019-02-20T10:39:03.160Z,17.35
2019-02-20T10:40:03.075Z,16.66
2019-02-20T10:41:03.270Z,17.88
2019-02-20T10:42:02.965Z,19.54
2019-02-20T10:43:03.803Z,18.26
2019-02-20T10:44:03.077Z,19.18
2019-02-20T10:45:03.327Z,19.16
2019-02-20T10:46:03.648Z,19.26
2019-02-20T10:47:03.088Z,19.48
2019-02-20T10:48:03.445Z,17.55
2019-02-20T10:49:03.254Z,15.86
2019-02-20T10:50:03.577Z,15.9
2019-02-20T10:51:03.096Z,16.58
2019-02-20T10:52:03.325Z,15.03
2019-02-20T10:53:03.807Z,16.12
2019-02-20T10:54:03.358Z,14.82
2019-02-20T10:55:02.988Z,14.05
2019-02-20T10:56:09.784Z,11.95
2019-02-20T10:57:03.713Z,11.95
2019-02-20T10:58:03.276Z,9.48
2019-02-20T10:59:02.775Z,9.48
2019-02-20T11:00:03.204Z,8.34
2019-02-20T11:01:02.923Z,8.39
2019-02-20T11:02:03.087Z,9.1
2019-02-20T11:03:03.417Z,9.07
2019-02-20T11:04:02.933Z,9.26
2019-02-20T11:05:03.374Z,9.22
2019-02-20T11:06:03.179Z,10.83
2019-02-20T11:07:03.507Z,8.99
2019-02-20T11:08:03.124Z,9.61
2019-02-20T11:09:03.314Z,9.2
2019-02-20T11:10:02.934Z,9.36
2019-02-20T11:11:03.105Z,8.9
2019-02-20T11:12:03.190Z,9.43
2019-02-20T11:13:03.160Z,8.47
2019-02-20T11:14:02.954Z,9.61
2019-02-20T11:15:03.337Z,9.84
2019-02-20T11:16:03.691Z,10.94
2019-02-20T11:17:02.794Z,9.89
2019-02-20T11:18:03.480Z,10.62
2019-02-20T11:19:02.932Z,9.92
2019-02-20T11:20:03.698Z,9.93
2019-02-20T11:21:02.819Z,9.26
2019-02-20T11:22:03.276Z,9.64
2019-02-20T11:23:02.903Z,9.96
2019-02-20T11:24:03.416Z,10
2019-02-20T11:25:03.696Z,8.99
2019-02-20T11:26:04.957Z,9.3
2019-02-20T11:27:02.922Z,9.96
2019-02-20T11:28:03.399Z,11.83
2019-02-20T11:29:03.675Z,10.56
2019-02-20T11:30:03.173Z,10.41
2019-02-20T11:31:03.601Z,10.91
2019-02-20T11:32:03.122Z,10.3
2019-02-20T11:33:03.579Z,10.26
2019-02-20T11:34:03.707Z,10.51
2019-02-20T11:35:03.272Z,9.91
2019-02-20T11:36:03.297Z,10.41
2019-02-20T11:37:02.876Z,11.12
2019-02-20T11:38:03.340Z,10.09
2019-02-20T11:39:02.934Z,11.86
2019-02-20T11:40:03.288Z,11.78
2019-02-20T11:41:03.349Z,11.54
2019-02-20T11:42:03.081Z,10.12
2019-02-20T11:43:03.371Z,11.99
2019-02-20T11:44:02.754Z,11.34
2019-02-20T11:45:03.064Z,10.09
2019-02-20T11:46:03.662Z,10.74
2019-02-20T11:47:03.149Z,10.95
2019-02-20T11:48:03.580Z,11.25
2019-02-20T11:49:02.867Z,11.27
2019-02-20T11:50:03.503Z,11.27
2019-02-20T11:51:02.942Z,11.68
2019-02-20T11:52:02.973Z,10.66
2019-02-20T11:53:03.278Z,10.66
2019-02-20T11:54:03.665Z,11.18
2019-02-20T11:55:03.035Z,11.39
2019-02-20T11:56:03.628Z,11.39
2019-02-20T11:57:02.973Z,11.66
2019-02-20T11:58:03.614Z,11.44
2019-02-20T11:59:02.683Z,12.46
2019-02-20T12:00:03.250Z,12.28
2019-02-20T12:01:03.412Z,12.42
2019-02-20T12:02:03.105Z,13.24
2019-02-20T12:03:03.662Z,13.5
2019-02-20T12:04:02.919Z,14.22
2019-02-20T12:05:03.109Z,13.5
2019-02-20T12:06:03.021Z,13.45
2019-02-20T12:07:02.868Z,13.31
2019-02-20T12:08:03.349Z,14.06
2019-02-20T12:09:02.852Z,12.79
2019-02-20T12:10:03.293Z,14.24
2019-02-20T12:11:03.482Z,13.38
2019-02-20T12:12:03.015Z,11.96
2019-02-20T12:13:03.340Z,11.73
2019-02-20T12:14:02.922Z,12.51
2019-02-20T12:15:03.507Z,11.68
2019-02-20T12:16:02.905Z,12.05
2019-02-20T12:17:04.049Z,12
2019-02-20T12:18:03.627Z,12.21
2019-02-20T12:19:02.962Z,11.85
2019-02-20T12:20:03.328Z,11.19
2019-02-20T12:21:02.939Z,11.01
2019-02-20T12:22:03.368Z,11.52
2019-02-20T12:23:02.772Z,11.51
2019-02-20T12:24:03.259Z,10.75
2019-02-20T12:25:02.928Z,10.67
2019-02-20T12:26:03.242Z,11.35
2019-02-20T12:27:03.413Z,10.29
2019-02-20T12:28:03.346Z,9.78
2019-02-20T12:29:03.643Z,9.87
2019-02-20T12:30:03.201Z,9.75
2019-02-20T12:31:03.259Z,9.41
2019-02-20T12:32:03.461Z,9.74
2019-02-20T12:33:03.679Z,9.16
2019-02-20T12:34:03.274Z,9.3
2019-02-20T12:35:03.616Z,8.73
2019-02-20T12:36:03.211Z,9.32
2019-02-20T12:37:03.624Z,9
2019-02-20T12:38:02.840Z,8.89
2019-02-20T12:39:03.123Z,8.89
2019-02-20T12:40:03.066Z,9.42
2019-02-20T12:41:03.212Z,9.42
2019-02-20T12:42:02.955Z,9.36
2019-02-20T12:43:03.590Z,9.92
2019-02-20T12:44:02.722Z,9.92
2019-02-20T12:45:03.327Z,10.25
2019-02-20T12:46:02.915Z,8.58
2019-02-20T12:47:03.192Z,8.69
2019-02-20T12:48:03.239Z,8.6
2019-02-20T12:49:03.748Z,8.64
2019-02-20T12:50:02.828Z,9.81
2019-02-20T12:51:03.148Z,8.41
2019-02-20T12:52:02.945Z,8.24
2019-02-20T12:53:03.164Z,8.74
2019-02-20T12:54:02.931Z,8.61
2019-02-20T12:55:03.672Z,9.15
2019-02-20T12:56:10.336Z,9.84